SCO16NO EGPB-EGPA

Flight info

Callsign SCO16NO
Flight time 0h 28m
Altitude 12000
Route WAFIL DCT KOKAL
Aircraft AT76/M-SDFGIRY/S

Departure

Time 2026-05-07 12:47
Airport Sumburgh Airport (EGPB)

Arrival

Time 2026-05-07 13:16
Airport Kirkwall Airport (EGPA)
Time Latitude Longitude Altitude Speed Heading
2026-05-07 12:35 59.87961 -1.29296 18 ft 0 kts 95°
2026-05-07 12:44 59.87961 -1.29295 18 ft 0 kts 95°
2026-05-07 12:44 59.87964 -1.29287 20 ft 2 kts 55°
2026-05-07 12:44 59.87975 -1.29320 19 ft 6 kts 257°
2026-05-07 12:45 59.87956 -1.29401 19 ft 6 kts 237°
2026-05-07 12:45 59.87930 -1.29470 16 ft 6 kts 230°
2026-05-07 12:45 59.87908 -1.29507 16 ft 3 kts 218°
2026-05-07 12:45 59.87893 -1.29534 16 ft 3 kts 227°
2026-05-07 12:46 59.87890 -1.29576 15 ft 4 kts 300°
2026-05-07 12:46 59.87940 -1.29685 15 ft 20 kts 324°
2026-05-07 12:46 59.88106 -1.29879 18 ft 19 kts 336°
2026-05-07 12:46 59.88101 -1.29915 17 ft 5 kts 153°
2026-05-07 12:47 59.87917 -1.29645 15 ft 68 kts 143°
2026-05-07 12:47 59.87407 -1.28895 173 ft 99 kts 145°
2026-05-07 12:47 59.86823 -1.28053 561 ft 116 kts 153°
2026-05-07 12:47 59.86005 -1.27421 1046 ft 137 kts 170°
2026-05-07 12:48 59.85014 -1.27233 1615 ft 149 kts 166°
2026-05-07 12:48 59.84241 -1.25749 2127 ft 173 kts 119°
2026-05-07 12:48 59.83760 -1.23605 2644 ft 165 kts 143°
2026-05-07 12:48 59.82722 -1.23049 3191 ft 162 kts 195°
2026-05-07 12:49 59.81903 -1.24592 3759 ft 175 kts 243°
2026-05-07 12:49 59.81805 -1.27035 4258 ft 179 kts 261°
2026-05-07 12:49 59.81774 -1.29502 4738 ft 178 kts 258°
2026-05-07 12:49 59.81653 -1.31945 5201 ft 177 kts 254°
2026-05-07 12:50 59.81426 -1.34332 5671 ft 175 kts 250°
2026-05-07 12:50 59.81138 -1.36665 6157 ft 173 kts 247°
2026-05-07 12:50 59.80744 -1.38905 6612 ft 170 kts 242°
2026-05-07 12:50 59.80275 -1.41050 7064 ft 169 kts 240°
2026-05-07 12:51 59.79759 -1.43120 7527 ft 166 kts 236°
2026-05-07 12:51 59.79171 -1.45073 7995 ft 164 kts 232°
2026-05-07 12:51 59.78518 -1.46903 8465 ft 161 kts 229°
2026-05-07 12:51 59.77815 -1.48613 8944 ft 159 kts 225°
2026-05-07 12:52 59.77084 -1.50230 9434 ft 156 kts 224°
2026-05-07 12:52 59.76346 -1.51791 9915 ft 154 kts 224°
2026-05-07 12:52 59.75614 -1.53309 10359 ft 151 kts 224°
2026-05-07 12:52 59.74892 -1.54790 10809 ft 148 kts 224°
2026-05-07 12:53 59.74188 -1.56247 11266 ft 144 kts 225°
2026-05-07 12:53 59.73509 -1.57679 11727 ft 141 kts 226°
2026-05-07 12:53 59.72811 -1.59140 11909 ft 155 kts 226°
2026-05-07 12:53 59.72023 -1.60797 11956 ft 174 kts 227°
2026-05-07 12:54 59.71159 -1.62647 11971 ft 191 kts 227°
2026-05-07 12:54 59.70241 -1.64624 11976 ft 204 kts 227°
2026-05-07 12:54 59.69242 -1.66765 11977 ft 214 kts 227°
2026-05-07 12:54 59.68225 -1.68932 11975 ft 221 kts 227°
2026-05-07 12:55 59.67163 -1.71188 11975 ft 226 kts 227°
2026-05-07 12:55 59.66081 -1.73481 11984 ft 230 kts 227°
2026-05-07 12:55 59.64982 -1.75807 11986 ft 233 kts 227°
2026-05-07 12:55 59.63871 -1.78158 11989 ft 235 kts 227°
2026-05-07 12:56 59.62752 -1.80522 11986 ft 236 kts 227°
2026-05-07 12:56 59.61625 -1.82898 11983 ft 237 kts 227°
2026-05-07 12:56 59.60494 -1.85285 11982 ft 238 kts 227°
2026-05-07 12:56 59.59360 -1.87674 11984 ft 239 kts 227°
2026-05-07 12:57 59.58226 -1.90064 11980 ft 239 kts 227°
2026-05-07 12:57 59.57084 -1.92462 11981 ft 240 kts 227°
2026-05-07 12:57 59.55943 -1.94857 11978 ft 240 kts 227°
2026-05-07 12:57 59.54800 -1.97253 11979 ft 240 kts 227°
2026-05-07 12:58 59.53658 -1.99646 11974 ft 240 kts 227°
2026-05-07 12:58 59.52515 -2.02038 11977 ft 240 kts 227°
2026-05-07 12:58 59.51370 -2.04431 11977 ft 240 kts 227°
2026-05-07 12:58 59.50225 -2.06822 11974 ft 240 kts 227°
2026-05-07 12:59 59.49081 -2.09210 11974 ft 240 kts 226°
2026-05-07 12:59 59.47934 -2.11600 11973 ft 240 kts 226°
2026-05-07 12:59 59.46789 -2.13984 11974 ft 240 kts 226°
2026-05-07 12:59 59.45642 -2.16371 11969 ft 240 kts 226°
2026-05-07 13:00 59.44496 -2.18753 11970 ft 240 kts 226°
2026-05-07 13:00 59.43348 -2.21132 11967 ft 240 kts 226°
2026-05-07 13:00 59.42202 -2.23510 11969 ft 240 kts 226°
2026-05-07 13:00 59.41053 -2.25888 11969 ft 240 kts 226°
2026-05-07 13:01 59.39902 -2.28272 11971 ft 240 kts 226°
2026-05-07 13:01 59.38751 -2.30650 11969 ft 240 kts 226°
2026-05-07 13:01 59.37598 -2.33028 11964 ft 240 kts 226°
2026-05-07 13:01 59.36446 -2.35406 11963 ft 241 kts 226°
2026-05-07 13:02 59.35292 -2.37781 11965 ft 241 kts 226°
2026-05-07 13:02 59.34137 -2.40159 11963 ft 241 kts 226°
2026-05-07 13:02 59.32981 -2.42533 11963 ft 241 kts 226°
2026-05-07 13:02 59.31825 -2.44906 11960 ft 241 kts 226°
2026-05-07 13:03 59.30670 -2.47277 11961 ft 241 kts 226°
2026-05-07 13:03 59.29516 -2.49643 11957 ft 240 kts 226°
2026-05-07 13:03 59.28360 -2.52002 11956 ft 240 kts 226°
2026-05-07 13:03 59.27205 -2.54365 11958 ft 240 kts 226°
2026-05-07 13:04 59.26052 -2.56722 11934 ft 240 kts 226°
2026-05-07 13:04 59.24885 -2.59102 11473 ft 234 kts 226°
2026-05-07 13:04 59.23754 -2.61411 10947 ft 235 kts 226°
2026-05-07 13:04 59.22650 -2.63666 10385 ft 236 kts 225°
2026-05-07 13:05 59.21487 -2.66035 9845 ft 241 kts 225°
2026-05-07 13:05 59.20339 -2.68364 9270 ft 241 kts 225°
2026-05-07 13:05 59.19198 -2.70684 8668 ft 226 kts 225°
2026-05-07 13:05 59.18163 -2.72796 8079 ft 206 kts 224°
2026-05-07 13:06 59.17201 -2.74740 7503 ft 193 kts 224°
2026-05-07 13:06 59.16290 -2.76584 6942 ft 186 kts 223°
2026-05-07 13:06 59.15401 -2.78385 6392 ft 183 kts 223°
2026-05-07 13:06 59.14520 -2.80169 5827 ft 182 kts 223°
2026-05-07 13:07 59.13647 -2.81927 5242 ft 180 kts 223°
2026-05-07 13:07 59.12781 -2.83675 4668 ft 178 kts 223°
2026-05-07 13:07 59.11925 -2.85407 4091 ft 177 kts 223°
2026-05-07 13:07 59.11075 -2.87119 3529 ft 175 kts 223°
2026-05-07 13:08 59.10235 -2.88830 2961 ft 175 kts 222°
2026-05-07 13:08 59.09400 -2.90539 2439 ft 172 kts 221°
2026-05-07 13:08 59.08861 -2.91654 2249 ft 163 kts 221°
2026-05-07 13:08 59.08073 -2.93270 2125 ft 171 kts 221°
2026-05-07 13:09 59.07238 -2.94951 2062 ft 174 kts 221°
2026-05-07 13:09 59.06388 -2.96640 2032 ft 175 kts 220°
2026-05-07 13:09 59.05525 -2.98360 2012 ft 175 kts 220°
2026-05-07 13:09 59.04685 -3.00026 2006 ft 174 kts 220°
2026-05-07 13:10 59.03834 -3.01694 1998 ft 174 kts 220°
2026-05-07 13:10 59.02990 -3.03361 1994 ft 172 kts 220°
2026-05-07 13:10 59.02156 -3.05022 2005 ft 171 kts 220°
2026-05-07 13:10 59.01326 -3.06678 2009 ft 171 kts 220°
2026-05-07 13:11 59.00493 -3.08335 2011 ft 171 kts 221°
2026-05-07 13:11 58.99678 -3.09960 1982 ft 166 kts 221°
2026-05-07 13:11 58.98895 -3.11523 1966 ft 157 kts 221°
2026-05-07 13:11 58.98148 -3.13016 1976 ft 153 kts 221°
2026-05-07 13:12 58.97414 -3.14488 2002 ft 151 kts 221°
2026-05-07 13:12 58.96625 -3.15681 1960 ft 139 kts 189°
2026-05-07 13:12 58.95799 -3.14987 1979 ft 143 kts 128°
2026-05-07 13:12 58.95730 -3.13027 1962 ft 150 kts 89°
2026-05-07 13:13 58.95755 -3.11095 2012 ft 142 kts 103°
2026-05-07 13:13 58.95647 -3.09158 2026 ft 148 kts 107°
2026-05-07 13:13 58.95510 -3.07137 2014 ft 155 kts 104°
2026-05-07 13:13 58.95445 -3.05038 1988 ft 156 kts 100°
2026-05-07 13:14 58.95471 -3.02778 1551 ft 175 kts 94°
2026-05-07 13:14 58.95574 -3.00644 1239 ft 145 kts 94°
2026-05-07 13:14 58.95629 -2.98839 1010 ft 126 kts 98°
2026-05-07 13:14 58.95648 -2.97231 804 ft 114 kts 99°
2026-05-07 13:15 58.95656 -2.95763 624 ft 105 kts 99°
2026-05-07 13:15 58.95673 -2.94387 483 ft 101 kts 96°
2026-05-07 13:15 58.95691 -2.93011 301 ft 104 kts 91°
2026-05-07 13:15 58.95748 -2.91654 138 ft 98 kts 87°
2026-05-07 13:16 58.95789 -2.90402 49 ft 87 kts 88°
2026-05-07 13:16 58.95810 -2.89716 47 ft 42 kts 88°
2026-05-07 13:16 58.95792 -2.89343 43 ft 13 kts 161°
2026-05-07 13:16 58.95755 -2.89396 45 ft 14 kts 223°
2026-05-07 13:17 58.95659 -2.89565 47 ft 21 kts 222°
2026-05-07 13:17 58.95564 -2.89731 51 ft 19 kts 222°
2026-05-07 13:17 58.95464 -2.89909 55 ft 20 kts 225°
2026-05-07 13:17 58.95419 -2.90067 50 ft 1 kts 226°
2026-05-07 13:18 58.95471 -2.90133 56 ft 17 kts 325°
2026-05-07 13:18 58.95461 -2.90170 57 ft 5 kts 204°
2026-05-07 13:18 58.95447 -2.90186 55 ft 1 kts 211°
2026-05-07 13:18 58.95445 -2.90188 56 ft 1 kts 212°
2026-05-07 13:19 58.95444 -2.90189 57 ft 0 kts 212°